Lake Mohee, Indiana
Current Conditions -  °F | °C
As of 10:53 AM on Monday 26 Jan 2015 (Local Time) from KMIE Reporting Station
Clear Clear  
Wind Chill: 18°   Ceiling: Unl
Heat Index: 18°   Visibility: 10mi
Dew Point: 10°   Wind: 3mph
Humidity: 71%   Direction: 30°NNE
Pressure: 29.94"   Gusts: NA
Location:  40.4568°N, 85.3505°W
Report Text: KMIE 261553Z 03003KT 10SM CLR M08/M12 A2994 RMK AO2 SLP150 T10781122
Loading
Personal Weather Stations






























Interactive Weather Map New forecast layout! Learn more

10-Day Weather Forecast

Advertisements
Track Severe Weather on mobile